sensor_id;sensor_type;location;lat;lon;timestamp;P1;durP1;ratioP1;P2;durP2;ratioP2
50555;SDS011;36508;52.512;13.450;2022-11-18T00:02:13;27.00;;;24.00;;
50555;SDS011;36508;52.512;13.450;2022-11-18T00:04:38;29.10;;;26.13;;
50555;SDS011;36508;52.512;13.450;2022-11-18T00:07:04;25.63;;;21.90;;
50555;SDS011;36508;52.512;13.450;2022-11-18T00:09:29;25.30;;;22.60;;
50555;SDS011;36508;52.512;13.450;2022-11-18T00:11:55;28.17;;;24.80;;
50555;SDS011;36508;52.512;13.450;2022-11-18T00:14:39;26.40;;;19.60;;
50555;SDS011;36508;52.512;13.450;2022-11-18T00:17:05;22.40;;;20.00;;
50555;SDS011;36508;52.512;13.450;2022-11-18T00:19:32;24.77;;;22.17;;
50555;SDS011;36508;52.512;13.450;2022-11-18T00:22:00;25.23;;;22.07;;
50555;SDS011;36508;52.512;13.450;2022-11-18T00:24:27;25.83;;;22.50;;
50555;SDS011;36508;52.512;13.450;2022-11-18T00:26:53;23.73;;;20.73;;
50555;SDS011;36508;52.512;13.450;2022-11-18T00:29:19;28.90;;;25.27;;
50555;SDS011;36508;52.512;13.450;2022-11-18T00:31:45;23.67;;;21.40;;
50555;SDS011;36508;52.512;13.450;2022-11-18T00:34:12;26.47;;;23.30;;
50555;SDS011;36508;52.512;13.450;2022-11-18T00:36:39;24.30;;;21.73;;
50555;SDS011;36508;52.512;13.450;2022-11-18T00:39:06;21.73;;;19.40;;
50555;SDS011;36508;52.512;13.450;2022-11-18T00:41:32;29.90;;;22.43;;
50555;SDS011;36508;52.512;13.450;2022-11-18T00:44:18;26.70;;;24.07;;
50555;SDS011;36508;52.512;13.450;2022-11-18T00:46:44;24.37;;;21.97;;
50555;SDS011;36508;52.512;13.450;2022-11-18T00:49:09;23.30;;;20.17;;
50555;SDS011;36508;52.512;13.450;2022-11-18T00:51:35;21.00;;;18.80;;
50555;SDS011;36508;52.512;13.450;2022-11-18T00:54:01;25.33;;;22.80;;
50555;SDS011;36508;52.512;13.450;2022-11-18T00:56:26;23.87;;;21.37;;
50555;SDS011;36508;52.512;13.450;2022-11-18T00:58:52;23.87;;;19.93;;
50555;SDS011;36508;52.512;13.450;2022-11-18T01:01:18;24.10;;;21.70;;
50555;SDS011;36508;52.512;13.450;2022-11-18T01:03:43;24.20;;;21.70;;
50555;SDS011;36508;52.512;13.450;2022-11-18T01:06:09;24.50;;;21.87;;
50555;SDS011;36508;52.512;13.450;2022-11-18T01:08:34;19.50;;;17.77;;
50555;SDS011;36508;52.512;13.450;2022-11-18T01:11:00;22.80;;;19.77;;
50555;SDS011;36508;52.512;13.450;2022-11-18T01:13:44;23.10;;;20.70;;
50555;SDS011;36508;52.512;13.450;2022-11-18T01:16:16;20.97;;;18.87;;
50555;SDS011;36508;52.512;13.450;2022-11-18T01:18:46;24.00;;;20.17;;
50555;SDS011;36508;52.512;13.450;2022-11-18T01:21:12;21.47;;;19.27;;
50555;SDS011;36508;52.512;13.450;2022-11-18T01:23:38;22.30;;;19.93;;
50555;SDS011;36508;52.512;13.450;2022-11-18T01:26:04;21.20;;;19.00;;
50555;SDS011;36508;52.512;13.450;2022-11-18T01:28:32;24.10;;;21.77;;
50555;SDS011;36508;52.512;13.450;2022-11-18T01:31:05;25.37;;;21.37;;
50555;SDS011;36508;52.512;13.450;2022-11-18T01:33:35;23.83;;;21.33;;
50555;SDS011;36508;52.512;13.450;2022-11-18T01:36:01;23.33;;;21.10;;
50555;SDS011;36508;52.512;13.450;2022-11-18T01:38:26;21.87;;;19.87;;
50555;SDS011;36508;52.512;13.450;2022-11-18T01:40:53;19.10;;;17.30;;
50555;SDS011;36508;52.512;13.450;2022-11-18T01:43:19;22.87;;;20.83;;
50555;SDS011;36508;52.512;13.450;2022-11-18T01:45:47;20.23;;;18.13;;
50555;SDS011;36508;52.512;13.450;2022-11-18T01:48:17;20.17;;;17.17;;
50555;SDS011;36508;52.512;13.450;2022-11-18T01:50:54;22.23;;;19.83;;
50555;SDS011;36508;52.512;13.450;2022-11-18T01:53:25;20.70;;;18.80;;
50555;SDS011;36508;52.512;13.450;2022-11-18T01:56:15;23.60;;;21.20;;
50555;SDS011;36508;52.512;13.450;2022-11-18T01:58:55;19.57;;;17.57;;
50555;SDS011;36508;52.512;13.450;2022-11-18T02:01:23;16.53;;;14.63;;
50555;SDS011;36508;52.512;13.450;2022-11-18T02:03:49;24.23;;;21.70;;
50555;SDS011;36508;52.512;13.450;2022-11-18T02:06:17;24.10;;;19.90;;
50555;SDS011;36508;52.512;13.450;2022-11-18T02:08:43;35.00;;;21.27;;
50555;SDS011;36508;52.512;13.450;2022-11-18T02:11:13;23.00;;;20.60;;
50555;SDS011;36508;52.512;13.450;2022-11-18T02:13:58;24.27;;;21.43;;
50555;SDS011;36508;52.512;13.450;2022-11-18T02:16:26;23.27;;;20.97;;
50555;SDS011;36508;52.512;13.450;2022-11-18T02:24:53;22.00;;;19.80;;
50555;SDS011;36508;52.512;13.450;2022-11-18T02:30:17;21.00;;;18.80;;
50555;SDS011;36508;52.512;13.450;2022-11-18T02:32:53;21.40;;;19.27;;
50555;SDS011;36508;52.512;13.450;2022-11-18T02:35:36;21.00;;;17.30;;
50555;SDS011;36508;52.512;13.450;2022-11-18T02:40:38;25.27;;;22.80;;
50555;SDS011;36508;52.512;13.450;2022-11-18T02:43:36;19.60;;;17.80;;
50555;SDS011;36508;52.512;13.450;2022-11-18T02:46:10;24.03;;;21.37;;
50555;SDS011;36508;52.512;13.450;2022-11-18T02:48:40;21.77;;;19.17;;
50555;SDS011;36508;52.512;13.450;2022-11-18T02:51:11;20.77;;;18.80;;
50555;SDS011;36508;52.512;13.450;2022-11-18T02:53:41;23.43;;;21.13;;
50555;SDS011;36508;52.512;13.450;2022-11-18T02:56:09;22.57;;;20.40;;
50555;SDS011;36508;52.512;13.450;2022-11-18T02:58:36;22.07;;;19.93;;
50555;SDS011;36508;52.512;13.450;2022-11-18T03:01:01;22.33;;;19.93;;
50555;SDS011;36508;52.512;13.450;2022-11-18T03:08:31;26.13;;;21.23;;
50555;SDS011;36508;52.512;13.450;2022-11-18T03:11:09;24.20;;;21.80;;
50555;SDS011;36508;52.512;13.450;2022-11-18T03:16:33;21.67;;;17.87;;
50555;SDS011;36508;52.512;13.450;2022-11-18T03:19:06;32.50;;;25.77;;
50555;SDS011;36508;52.512;13.450;2022-11-18T03:21:41;32.00;;;25.90;;
50555;SDS011;36508;52.512;13.450;2022-11-18T03:24:16;24.30;;;21.90;;
50555;SDS011;36508;52.512;13.450;2022-11-18T03:27:08;23.80;;;21.27;;
50555;SDS011;36508;52.512;13.450;2022-11-18T03:29:47;25.40;;;21.03;;
50555;SDS011;36508;52.512;13.450;2022-11-18T03:32:25;28.93;;;23.73;;
50555;SDS011;36508;52.512;13.450;2022-11-18T03:35:10;26.47;;;23.57;;
50555;SDS011;36508;52.512;13.450;2022-11-18T03:37:40;26.97;;;24.07;;
50555;SDS011;36508;52.512;13.450;2022-11-18T03:40:14;26.70;;;23.57;;
50555;SDS011;36508;52.512;13.450;2022-11-18T03:42:45;25.83;;;22.53;;
50555;SDS011;36508;52.512;13.450;2022-11-18T03:45:23;24.57;;;22.07;;
50555;SDS011;36508;52.512;13.450;2022-11-18T03:48:01;31.47;;;24.00;;
50555;SDS011;36508;52.512;13.450;2022-11-18T03:50:38;27.23;;;24.43;;
50555;SDS011;36508;52.512;13.450;2022-11-18T03:53:14;26.07;;;23.27;;
50555;SDS011;36508;52.512;13.450;2022-11-18T03:55:42;24.47;;;21.70;;
50555;SDS011;36508;52.512;13.450;2022-11-18T04:01:42;30.33;;;24.50;;
50555;SDS011;36508;52.512;13.450;2022-11-18T04:04:17;28.77;;;23.17;;
50555;SDS011;36508;52.512;13.450;2022-11-18T04:06:44;29.57;;;23.80;;
50555;SDS011;36508;52.512;13.450;2022-11-18T04:09:19;29.03;;;26.13;;
50555;SDS011;36508;52.512;13.450;2022-11-18T04:11:53;25.73;;;22.77;;
50555;SDS011;36508;52.512;13.450;2022-11-18T04:14:26;28.37;;;24.77;;
50555;SDS011;36508;52.512;13.450;2022-11-18T04:16:56;27.77;;;24.47;;
50555;SDS011;36508;52.512;13.450;2022-11-18T04:19:22;30.57;;;27.27;;
50555;SDS011;36508;52.512;13.450;2022-11-18T04:21:47;28.20;;;25.20;;
50555;SDS011;36508;52.512;13.450;2022-11-18T04:24:14;29.93;;;25.20;;
50555;SDS011;36508;52.512;13.450;2022-11-18T04:26:40;29.90;;;25.70;;
50555;SDS011;36508;52.512;13.450;2022-11-18T04:29:06;29.70;;;26.50;;
50555;SDS011;36508;52.512;13.450;2022-11-18T04:31:31;29.87;;;24.80;;
50555;SDS011;36508;52.512;13.450;2022-11-18T04:33:57;31.37;;;27.00;;
50555;SDS011;36508;52.512;13.450;2022-11-18T04:36:23;35.37;;;29.43;;
50555;SDS011;36508;52.512;13.450;2022-11-18T04:38:48;33.03;;;25.57;;
50555;SDS011;36508;52.512;13.450;2022-11-18T04:41:14;30.90;;;26.80;;
50555;SDS011;36508;52.512;13.450;2022-11-18T04:43:40;34.13;;;29.87;;
50555;SDS011;36508;52.512;13.450;2022-11-18T04:46:06;38.27;;;29.33;;
50555;SDS011;36508;52.512;13.450;2022-11-18T04:48:32;35.83;;;28.17;;
50555;SDS011;36508;52.512;13.450;2022-11-18T04:51:01;34.53;;;29.83;;
50555;SDS011;36508;52.512;13.450;2022-11-18T04:53:28;33.80;;;27.37;;
50555;SDS011;36508;52.512;13.450;2022-11-18T04:55:53;32.00;;;28.03;;
50555;SDS011;36508;52.512;13.450;2022-11-18T04:58:19;33.37;;;27.83;;
50555;SDS011;36508;52.512;13.450;2022-11-18T05:00:44;38.00;;;30.60;;
50555;SDS011;36508;52.512;13.450;2022-11-18T05:03:10;37.70;;;30.63;;
50555;SDS011;36508;52.512;13.450;2022-11-18T05:05:35;34.50;;;29.70;;
50555;SDS011;36508;52.512;13.450;2022-11-18T05:08:01;35.50;;;31.43;;
50555;SDS011;36508;52.512;13.450;2022-11-18T05:10:27;45.53;;;30.47;;
50555;SDS011;36508;52.512;13.450;2022-11-18T05:12:52;42.27;;;30.50;;
50555;SDS011;36508;52.512;13.450;2022-11-18T05:15:19;37.47;;;31.13;;
50555;SDS011;36508;52.512;13.450;2022-11-18T05:17:47;32.80;;;27.73;;
50555;SDS011;36508;52.512;13.450;2022-11-18T05:20:13;37.20;;;30.80;;
50555;SDS011;36508;52.512;13.450;2022-11-18T05:22:39;36.70;;;31.57;;
50555;SDS011;36508;52.512;13.450;2022-11-18T05:25:05;37.07;;;31.40;;
50555;SDS011;36508;52.512;13.450;2022-11-18T05:27:31;35.60;;;29.67;;
50555;SDS011;36508;52.512;13.450;2022-11-18T05:29:56;35.50;;;30.60;;
50555;SDS011;36508;52.512;13.450;2022-11-18T05:32:22;37.10;;;28.93;;
50555;SDS011;36508;52.512;13.450;2022-11-18T05:34:48;34.00;;;27.30;;
50555;SDS011;36508;52.512;13.450;2022-11-18T05:37:13;40.63;;;31.20;;
50555;SDS011;36508;52.512;13.450;2022-11-18T05:39:39;29.37;;;23.27;;
50555;SDS011;36508;52.512;13.450;2022-11-18T05:42:05;33.10;;;26.80;;
50555;SDS011;36508;52.512;13.450;2022-11-18T05:44:49;35.80;;;26.57;;
50555;SDS011;36508;52.512;13.450;2022-11-18T05:47:15;35.67;;;27.63;;
50555;SDS011;36508;52.512;13.450;2022-11-18T05:49:42;34.53;;;27.83;;
50555;SDS011;36508;52.512;13.450;2022-11-18T05:52:08;35.80;;;27.87;;
50555;SDS011;36508;52.512;13.450;2022-11-18T05:54:33;31.63;;;26.70;;
50555;SDS011;36508;52.512;13.450;2022-11-18T05:57:02;29.83;;;26.27;;
50555;SDS011;36508;52.512;13.450;2022-11-18T05:59:27;33.63;;;26.33;;
50555;SDS011;36508;52.512;13.450;2022-11-18T06:06:59;30.23;;;24.80;;
50555;SDS011;36508;52.512;13.450;2022-11-18T06:09:32;26.60;;;23.80;;
50555;SDS011;36508;52.512;13.450;2022-11-18T06:12:03;30.87;;;23.27;;
50555;SDS011;36508;52.512;13.450;2022-11-18T06:14:39;25.37;;;22.67;;
50555;SDS011;36508;52.512;13.450;2022-11-18T06:17:13;23.57;;;20.70;;
50555;SDS011;36508;52.512;13.450;2022-11-18T06:19:43;25.93;;;19.93;;
50555;SDS011;36508;52.512;13.450;2022-11-18T06:22:08;28.80;;;24.07;;
50555;SDS011;36508;52.512;13.450;2022-11-18T06:24:34;23.63;;;19.10;;
50555;SDS011;36508;52.512;13.450;2022-11-18T06:27:01;25.30;;;21.70;;
50555;SDS011;36508;52.512;13.450;2022-11-18T06:29:27;28.70;;;20.90;;
50555;SDS011;36508;52.512;13.450;2022-11-18T06:31:55;21.80;;;19.43;;
50555;SDS011;36508;52.512;13.450;2022-11-18T06:34:21;22.77;;;20.13;;
50555;SDS011;36508;52.512;13.450;2022-11-18T06:36:46;23.33;;;19.57;;
50555;SDS011;36508;52.512;13.450;2022-11-18T06:39:12;22.00;;;19.20;;
50555;SDS011;36508;52.512;13.450;2022-11-18T06:41:38;22.57;;;20.23;;
50555;SDS011;36508;52.512;13.450;2022-11-18T06:44:03;21.80;;;18.90;;
50555;SDS011;36508;52.512;13.450;2022-11-18T06:46:29;21.40;;;19.03;;
50555;SDS011;36508;52.512;13.450;2022-11-18T06:49:13;22.60;;;20.27;;
50555;SDS011;36508;52.512;13.450;2022-11-18T06:51:39;26.60;;;20.87;;
50555;SDS011;36508;52.512;13.450;2022-11-18T06:54:04;20.40;;;18.33;;
50555;SDS011;36508;52.512;13.450;2022-11-18T06:56:30;24.60;;;20.90;;
50555;SDS011;36508;52.512;13.450;2022-11-18T06:58:56;21.47;;;18.97;;
50555;SDS011;36508;52.512;13.450;2022-11-18T07:01:24;22.37;;;20.27;;
50555;SDS011;36508;52.512;13.450;2022-11-18T07:03:51;21.93;;;19.00;;
50555;SDS011;36508;52.512;13.450;2022-11-18T07:06:18;20.30;;;17.07;;
50555;SDS011;36508;52.512;13.450;2022-11-18T07:08:46;25.17;;;21.67;;
50555;SDS011;36508;52.512;13.450;2022-11-18T07:11:13;23.13;;;20.50;;
50555;SDS011;36508;52.512;13.450;2022-11-18T07:13:42;21.40;;;19.17;;
50555;SDS011;36508;52.512;13.450;2022-11-18T07:16:18;27.00;;;20.53;;
50555;SDS011;36508;52.512;13.450;2022-11-18T07:18:45;16.33;;;14.63;;
50555;SDS011;36508;52.512;13.450;2022-11-18T07:21:15;11.07;;;9.60;;
50555;SDS011;36508;52.512;13.450;2022-11-18T07:23:46;22.47;;;20.23;;
50555;SDS011;36508;52.512;13.450;2022-11-18T07:26:12;23.57;;;20.77;;
50555;SDS011;36508;52.512;13.450;2022-11-18T07:28:38;21.63;;;19.43;;
50555;SDS011;36508;52.512;13.450;2022-11-18T07:31:05;34.70;;;22.93;;
50555;SDS011;36508;52.512;13.450;2022-11-18T07:33:33;23.00;;;19.90;;
50555;SDS011;36508;52.512;13.450;2022-11-18T07:36:00;24.87;;;20.03;;
50555;SDS011;36508;52.512;13.450;2022-11-18T07:38:36;23.93;;;20.83;;
50555;SDS011;36508;52.512;13.450;2022-11-18T07:41:05;22.40;;;20.00;;
50555;SDS011;36508;52.512;13.450;2022-11-18T07:43:33;30.60;;;21.73;;
50555;SDS011;36508;52.512;13.450;2022-11-18T07:46:13;24.80;;;20.87;;
50555;SDS011;36508;52.512;13.450;2022-11-18T07:48:40;22.80;;;20.37;;
50555;SDS011;36508;52.512;13.450;2022-11-18T07:51:07;24.50;;;21.17;;
50555;SDS011;36508;52.512;13.450;2022-11-18T07:53:33;26.10;;;22.20;;
50555;SDS011;36508;52.512;13.450;2022-11-18T07:55:59;24.00;;;19.70;;
50555;SDS011;36508;52.512;13.450;2022-11-18T07:58:25;23.73;;;21.30;;
50555;SDS011;36508;52.512;13.450;2022-11-18T08:00:51;23.50;;;20.70;;
50555;SDS011;36508;52.512;13.450;2022-11-18T08:03:16;24.93;;;20.80;;
50555;SDS011;36508;52.512;13.450;2022-11-18T08:05:42;32.27;;;22.90;;
50555;SDS011;36508;52.512;13.450;2022-11-18T08:08:08;22.73;;;20.60;;
50555;SDS011;36508;52.512;13.450;2022-11-18T08:10:34;23.93;;;21.43;;
50555;SDS011;36508;52.512;13.450;2022-11-18T08:13:00;20.63;;;17.80;;
50555;SDS011;36508;52.512;13.450;2022-11-18T08:15:26;25.40;;;20.67;;
50555;SDS011;36508;52.512;13.450;2022-11-18T08:17:51;22.17;;;20.07;;
50555;SDS011;36508;52.512;13.450;2022-11-18T08:20:17;33.93;;;22.03;;
50555;SDS011;36508;52.512;13.450;2022-11-18T08:22:42;28.57;;;23.10;;
50555;SDS011;36508;52.512;13.450;2022-11-18T08:25:08;22.43;;;20.17;;
50555;SDS011;36508;52.512;13.450;2022-11-18T08:27:34;24.27;;;20.93;;
50555;SDS011;36508;52.512;13.450;2022-11-18T08:29:59;22.47;;;19.50;;
50555;SDS011;36508;52.512;13.450;2022-11-18T08:32:25;24.73;;;21.10;;
50555;SDS011;36508;52.512;13.450;2022-11-18T08:34:51;20.60;;;18.40;;
50555;SDS011;36508;52.512;13.450;2022-11-18T08:37:16;23.23;;;20.83;;
50555;SDS011;36508;52.512;13.450;2022-11-18T08:39:42;25.47;;;21.90;;
50555;SDS011;36508;52.512;13.450;2022-11-18T08:42:08;25.33;;;22.93;;
50555;SDS011;36508;52.512;13.450;2022-11-18T08:44:34;22.43;;;20.03;;
50555;SDS011;36508;52.512;13.450;2022-11-18T08:47:00;24.03;;;21.27;;
50555;SDS011;36508;52.512;13.450;2022-11-18T08:49:26;23.63;;;18.87;;
50555;SDS011;36508;52.512;13.450;2022-11-18T08:51:52;21.33;;;19.07;;
50555;SDS011;36508;52.512;13.450;2022-11-18T08:54:18;26.70;;;22.97;;
50555;SDS011;36508;52.512;13.450;2022-11-18T08:56:45;23.10;;;20.30;;
50555;SDS011;36508;52.512;13.450;2022-11-18T08:59:11;23.03;;;20.27;;
50555;SDS011;36508;52.512;13.450;2022-11-18T09:01:36;21.67;;;19.27;;
50555;SDS011;36508;52.512;13.450;2022-11-18T09:04:03;29.53;;;22.47;;
50555;SDS011;36508;52.512;13.450;2022-11-18T09:06:29;24.67;;;21.47;;
50555;SDS011;36508;52.512;13.450;2022-11-18T09:08:54;21.80;;;19.60;;
50555;SDS011;36508;52.512;13.450;2022-11-18T09:11:24;25.47;;;21.07;;
50555;SDS011;36508;52.512;13.450;2022-11-18T09:13:51;24.20;;;16.30;;
50555;SDS011;36508;52.512;13.450;2022-11-18T09:16:18;19.50;;;17.50;;
50555;SDS011;36508;52.512;13.450;2022-11-18T09:18:43;23.47;;;19.40;;
50555;SDS011;36508;52.512;13.450;2022-11-18T09:21:09;20.03;;;17.27;;
50555;SDS011;36508;52.512;13.450;2022-11-18T09:23:35;25.73;;;20.03;;
50555;SDS011;36508;52.512;13.450;2022-11-18T09:26:09;20.73;;;18.57;;
50555;SDS011;36508;52.512;13.450;2022-11-18T09:28:36;21.20;;;18.60;;
50555;SDS011;36508;52.512;13.450;2022-11-18T09:31:06;23.00;;;20.37;;
50555;SDS011;36508;52.512;13.450;2022-11-18T09:33:34;19.33;;;17.03;;
50555;SDS011;36508;52.512;13.450;2022-11-18T09:36:00;20.63;;;18.47;;
50555;SDS011;36508;52.512;13.450;2022-11-18T09:38:30;23.77;;;19.63;;
50555;SDS011;36508;52.512;13.450;2022-11-18T09:41:06;19.13;;;17.17;;
50555;SDS011;36508;52.512;13.450;2022-11-18T09:49:33;13.90;;;12.70;;
50555;SDS011;36508;52.512;13.450;2022-11-18T09:52:02;15.80;;;14.17;;
50555;SDS011;36508;52.512;13.450;2022-11-18T09:54:31;15.70;;;14.20;;
50555;SDS011;36508;52.512;13.450;2022-11-18T09:56:59;16.50;;;13.23;;
50555;SDS011;36508;52.512;13.450;2022-11-18T09:59:26;16.57;;;14.93;;
50555;SDS011;36508;52.512;13.450;2022-11-18T10:02:03;22.93;;;20.43;;
50555;SDS011;36508;52.512;13.450;2022-11-18T10:04:37;13.20;;;11.43;;
50555;SDS011;36508;52.512;13.450;2022-11-18T10:07:05;12.27;;;10.77;;
50555;SDS011;36508;52.512;13.450;2022-11-18T10:09:40;12.63;;;11.17;;
50555;SDS011;36508;52.512;13.450;2022-11-18T10:15:07;10.87;;;9.97;;
50555;SDS011;36508;52.512;13.450;2022-11-18T10:17:45;10.13;;;9.23;;
50555;SDS011;36508;52.512;13.450;2022-11-18T10:23:14;13.40;;;11.97;;
50555;SDS011;36508;52.512;13.450;2022-11-18T10:26:07;12.23;;;10.53;;
50555;SDS011;36508;52.512;13.450;2022-11-18T10:28:33;11.70;;;10.37;;
50555;SDS011;36508;52.512;13.450;2022-11-18T10:31:06;12.87;;;11.47;;
50555;SDS011;36508;52.512;13.450;2022-11-18T10:33:33;12.13;;;10.93;;
50555;SDS011;36508;52.512;13.450;2022-11-18T10:38:41;10.07;;;9.10;;
50555;SDS011;36508;52.512;13.450;2022-11-18T10:41:08;12.23;;;11.13;;
50555;SDS011;36508;52.512;13.450;2022-11-18T10:43:45;13.17;;;11.87;;
50555;SDS011;36508;52.512;13.450;2022-11-18T10:46:17;18.27;;;16.47;;
50555;SDS011;36508;52.512;13.450;2022-11-18T10:49:27;11.87;;;10.80;;
50555;SDS011;36508;52.512;13.450;2022-11-18T10:52:05;13.97;;;12.57;;
50555;SDS011;36508;52.512;13.450;2022-11-18T10:54:35;12.00;;;10.90;;
50555;SDS011;36508;52.512;13.450;2022-11-18T10:59:50;12.30;;;9.50;;
50555;SDS011;36508;52.512;13.450;2022-11-18T11:02:29;13.83;;;12.57;;
50555;SDS011;36508;52.512;13.450;2022-11-18T11:04:56;10.27;;;9.27;;
50555;SDS011;36508;52.512;13.450;2022-11-18T11:07:41;8.20;;;7.50;;
50555;SDS011;36508;52.512;13.450;2022-11-18T11:12:37;10.83;;;9.93;;
50555;SDS011;36508;52.512;13.450;2022-11-18T11:15:17;13.40;;;11.80;;
50555;SDS011;36508;52.512;13.450;2022-11-18T11:18:02;12.40;;;11.10;;
50555;SDS011;36508;52.512;13.450;2022-11-18T11:20:55;11.90;;;10.83;;
50555;SDS011;36508;52.512;13.450;2022-11-18T11:23:24;13.03;;;11.73;;
50555;SDS011;36508;52.512;13.450;2022-11-18T11:28:29;31.17;;;26.30;;
50555;SDS011;36508;52.512;13.450;2022-11-18T11:36:20;13.20;;;11.93;;
50555;SDS011;36508;52.512;13.450;2022-11-18T11:42:42;16.40;;;12.40;;
50555;SDS011;36508;52.512;13.450;2022-11-18T11:51:10;9.80;;;8.87;;
50555;SDS011;36508;52.512;13.450;2022-11-18T11:54:05;16.00;;;11.50;;
50555;SDS011;36508;52.512;13.450;2022-11-18T11:59:34;11.63;;;10.47;;
50555;SDS011;36508;52.512;13.450;2022-11-18T12:07:27;10.33;;;9.33;;
50555;SDS011;36508;52.512;13.450;2022-11-18T12:21:39;23.13;;;15.40;;
50555;SDS011;36508;52.512;13.450;2022-11-18T12:26:42;18.47;;;16.57;;
50555;SDS011;36508;52.512;13.450;2022-11-18T12:29:19;8.83;;;7.97;;
50555;SDS011;36508;52.512;13.450;2022-11-18T12:31:51;10.10;;;9.23;;
50555;SDS011;36508;52.512;13.450;2022-11-18T12:34:26;14.73;;;11.57;;
50555;SDS011;36508;52.512;13.450;2022-11-18T12:50:48;9.63;;;8.93;;
50555;SDS011;36508;52.512;13.450;2022-11-18T12:53:30;11.30;;;8.37;;
50555;SDS011;36508;52.512;13.450;2022-11-18T13:01:15;10.40;;;9.50;;
50555;SDS011;36508;52.512;13.450;2022-11-18T13:03:45;14.30;;;12.33;;
50555;SDS011;36508;52.512;13.450;2022-11-18T13:06:18;11.50;;;8.80;;
50555;SDS011;36508;52.512;13.450;2022-11-18T13:08:49;10.73;;;8.93;;
50555;SDS011;36508;52.512;13.450;2022-11-18T13:11:16;11.87;;;9.33;;
50555;SDS011;36508;52.512;13.450;2022-11-18T13:14:01;12.53;;;9.50;;
50555;SDS011;36508;52.512;13.450;2022-11-18T13:16:48;13.10;;;11.00;;
50555;SDS011;36508;52.512;13.450;2022-11-18T13:19:32;11.33;;;10.03;;
50555;SDS011;36508;52.512;13.450;2022-11-18T13:21:59;13.53;;;10.97;;
50555;SDS011;36508;52.512;13.450;2022-11-18T13:24:45;9.10;;;8.30;;
50555;SDS011;36508;52.512;13.450;2022-11-18T13:27:27;10.77;;;9.87;;
50555;SDS011;36508;52.512;13.450;2022-11-18T13:30:03;11.77;;;10.63;;
50555;SDS011;36508;52.512;13.450;2022-11-18T13:32:33;13.60;;;10.90;;
50555;SDS011;36508;52.512;13.450;2022-11-18T13:37:51;17.00;;;13.97;;
50555;SDS011;36508;52.512;13.450;2022-11-18T13:40:26;13.23;;;11.30;;
50555;SDS011;36508;52.512;13.450;2022-11-18T13:42:53;9.03;;;8.00;;
50555;SDS011;36508;52.512;13.450;2022-11-18T13:45:19;16.63;;;10.07;;
50555;SDS011;36508;52.512;13.450;2022-11-18T13:47:51;13.07;;;11.83;;
50555;SDS011;36508;52.512;13.450;2022-11-18T13:50:35;7.70;;;7.10;;
50555;SDS011;36508;52.512;13.450;2022-11-18T13:56:00;9.03;;;7.10;;
50555;SDS011;36508;52.512;13.450;2022-11-18T14:01:02;15.30;;;11.53;;
50555;SDS011;36508;52.512;13.450;2022-11-18T14:05:58;9.83;;;7.77;;
50555;SDS011;36508;52.512;13.450;2022-11-18T14:08:28;8.03;;;7.43;;
50555;SDS011;36508;52.512;13.450;2022-11-18T14:10:54;8.03;;;7.50;;
50555;SDS011;36508;52.512;13.450;2022-11-18T14:13:24;8.43;;;7.73;;
50555;SDS011;36508;52.512;13.450;2022-11-18T14:15:58;7.73;;;7.03;;
50555;SDS011;36508;52.512;13.450;2022-11-18T14:18:45;9.37;;;7.80;;
50555;SDS011;36508;52.512;13.450;2022-11-18T14:21:25;14.37;;;12.33;;
50555;SDS011;36508;52.512;13.450;2022-11-18T14:24:02;11.50;;;10.00;;
50555;SDS011;36508;52.512;13.450;2022-11-18T14:26:29;7.60;;;7.00;;
50555;SDS011;36508;52.512;13.450;2022-11-18T14:28:57;8.30;;;7.60;;
50555;SDS011;36508;52.512;13.450;2022-11-18T14:31:28;8.07;;;7.47;;
50555;SDS011;36508;52.512;13.450;2022-11-18T14:34:16;13.33;;;10.57;;
50555;SDS011;36508;52.512;13.450;2022-11-18T14:36:43;8.83;;;8.07;;
50555;SDS011;36508;52.512;13.450;2022-11-18T14:39:22;10.40;;;9.47;;
50555;SDS011;36508;52.512;13.450;2022-11-18T14:41:52;7.87;;;7.20;;
50555;SDS011;36508;52.512;13.450;2022-11-18T14:44:18;7.57;;;6.87;;
50555;SDS011;36508;52.512;13.450;2022-11-18T14:46:49;7.43;;;6.83;;
50555;SDS011;36508;52.512;13.450;2022-11-18T14:49:18;7.13;;;6.50;;
50555;SDS011;36508;52.512;13.450;2022-11-18T14:51:48;7.90;;;7.30;;
50555;SDS011;36508;52.512;13.450;2022-11-18T14:54:15;15.23;;;8.10;;
50555;SDS011;36508;52.512;13.450;2022-11-18T14:56:42;10.43;;;9.30;;
50555;SDS011;36508;52.512;13.450;2022-11-18T14:59:10;13.00;;;9.10;;
50555;SDS011;36508;52.512;13.450;2022-11-18T15:01:37;9.37;;;8.47;;
50555;SDS011;36508;52.512;13.450;2022-11-18T15:04:03;8.47;;;7.87;;
50555;SDS011;36508;52.512;13.450;2022-11-18T15:06:29;8.87;;;7.97;;
50555;SDS011;36508;52.512;13.450;2022-11-18T15:08:54;8.67;;;8.07;;
50555;SDS011;36508;52.512;13.450;2022-11-18T15:11:20;9.27;;;8.43;;
50555;SDS011;36508;52.512;13.450;2022-11-18T15:13:45;6.67;;;5.97;;
50555;SDS011;36508;52.512;13.450;2022-11-18T15:18:41;8.40;;;7.43;;
50555;SDS011;36508;52.512;13.450;2022-11-18T15:21:08;12.03;;;10.80;;
50555;SDS011;36508;52.512;13.450;2022-11-18T15:23:34;10.17;;;9.27;;
50555;SDS011;36508;52.512;13.450;2022-11-18T15:25:59;7.67;;;6.97;;
50555;SDS011;36508;52.512;13.450;2022-11-18T15:28:25;7.13;;;6.53;;
50555;SDS011;36508;52.512;13.450;2022-11-18T15:30:51;11.93;;;10.70;;
50555;SDS011;36508;52.512;13.450;2022-11-18T15:33:16;6.33;;;5.57;;
50555;SDS011;36508;52.512;13.450;2022-11-18T15:35:42;6.90;;;6.23;;
50555;SDS011;36508;52.512;13.450;2022-11-18T15:38:09;6.93;;;6.33;;
50555;SDS011;36508;52.512;13.450;2022-11-18T15:40:36;8.07;;;7.37;;
50555;SDS011;36508;52.512;13.450;2022-11-18T15:43:02;6.27;;;5.70;;
50555;SDS011;36508;52.512;13.450;2022-11-18T15:45:28;8.13;;;7.33;;
50555;SDS011;36508;52.512;13.450;2022-11-18T15:47:54;7.70;;;6.37;;
50555;SDS011;36508;52.512;13.450;2022-11-18T15:50:21;6.27;;;5.77;;
50555;SDS011;36508;52.512;13.450;2022-11-18T15:52:49;7.50;;;6.90;;
50555;SDS011;36508;52.512;13.450;2022-11-18T15:55:14;6.47;;;5.93;;
50555;SDS011;36508;52.512;13.450;2022-11-18T15:57:41;7.80;;;7.03;;
50555;SDS011;36508;52.512;13.450;2022-11-18T16:00:06;6.93;;;6.23;;
50555;SDS011;36508;52.512;13.450;2022-11-18T16:02:33;8.07;;;6.77;;
50555;SDS011;36508;52.512;13.450;2022-11-18T16:04:59;6.87;;;5.73;;
50555;SDS011;36508;52.512;13.450;2022-11-18T16:07:24;9.03;;;7.73;;
50555;SDS011;36508;52.512;13.450;2022-11-18T16:09:50;8.60;;;6.40;;
50555;SDS011;36508;52.512;13.450;2022-11-18T16:12:34;7.37;;;6.63;;
50555;SDS011;36508;52.512;13.450;2022-11-18T16:15:12;6.33;;;5.73;;
50555;SDS011;36508;52.512;13.450;2022-11-18T16:18:00;10.40;;;8.87;;
50555;SDS011;36508;52.512;13.450;2022-11-18T16:20:27;7.63;;;6.93;;
50555;SDS011;36508;52.512;13.450;2022-11-18T16:22:54;7.50;;;6.73;;
50555;SDS011;36508;52.512;13.450;2022-11-18T16:25:20;7.13;;;6.23;;
50555;SDS011;36508;52.512;13.450;2022-11-18T16:27:46;7.37;;;6.77;;
50555;SDS011;36508;52.512;13.450;2022-11-18T16:30:11;6.90;;;6.30;;